Etusivu
METAR-TAF:

METAR-TAF

Lentoasemat :

Stord, Norja

Leveyspiiri: 59-48N, Pituuspiiri: 005-21E, korkeus merenpinnasta: 49 m

METAR: puuttuu

Aika: 20:48 (18:48 UTC)

Sääennuste

Tämä raportti tehtiin 28 tuntia ja 48 minuuttia sitten, kello 14.00 UTC
Ennuste voimassa 21. päivästä klo 15 UTC - 21. päivään klo 19 UTC
Tuuli 5 kn eri suunnista
Näkyvyys 10 km tai enemmän
Hajanaisia pilviä 1200 ft:n korkeudessa
Hajonneita pilviä 2000 ft:n korkeudessa
heikkoa sadetta
Todennäköisyys 40%
21. päivästä klo 15 UTC - 21. päivään klo 19 UTC
Näkyvyys: 3000 m
Hajonneita pilviä 800 ft:n korkeudessa
utua

TAF: ENSO 211400Z 2115/2119 VRB05KT 9999 -RA SCT012 BKN020 PROB40 2115/2119 3000 BR BKN008

Säähavainnot ja -ennusteet yli 4000 lentoasemalta (METAR- ja TAF-raportit).

Käytössä olevat sääasemat on merkitty karttaan keltaisilla ja punaisilla pisteillä.

Aseta hiiri pisteen päälle nähdäksesi sääaseman nimen.

Klikkaa sitten nähdäksesi säähavainnot ja -ennusteet.

Kartan vaihtaminen: klikkaa mustalla rastilla varustettuja vihreitä pisteitä, niin voit zoomata sisään; viivalla varustettua vihreää pistettä, niin voit zoomata ulos tai vihreitä nuolia, niin pääset viereisille kartoille.


METAR-TAF: